sensor_id;sensor_type;location;lat;lon;timestamp;P1;durP1;ratioP1;P2;durP2;ratioP2
5776;SDS011;2914;42.668;23.346;2023-04-24T00:00:22;14.83;;;9.07;;
5776;SDS011;2914;42.668;23.346;2023-04-24T00:02:52;17.30;;;9.73;;
5776;SDS011;2914;42.668;23.346;2023-04-24T00:05:22;18.83;;;9.50;;
5776;SDS011;2914;42.668;23.346;2023-04-24T00:07:52;11.90;;;8.50;;
5776;SDS011;2914;42.668;23.346;2023-04-24T00:10:21;10.20;;;8.20;;
5776;SDS011;2914;42.668;23.346;2023-04-24T00:12:50;13.57;;;9.27;;
5776;SDS011;2914;42.668;23.346;2023-04-24T00:15:19;12.10;;;9.40;;
5776;SDS011;2914;42.668;23.346;2023-04-24T00:17:49;8.37;;;7.60;;
5776;SDS011;2914;42.668;23.346;2023-04-24T00:20:19;9.63;;;7.70;;
5776;SDS011;2914;42.668;23.346;2023-04-24T00:22:48;10.27;;;7.90;;
5776;SDS011;2914;42.668;23.346;2023-04-24T00:25:18;9.03;;;6.40;;
5776;SDS011;2914;42.668;23.346;2023-04-24T00:27:55;8.17;;;6.23;;
5776;SDS011;2914;42.668;23.346;2023-04-24T00:30:24;6.83;;;6.33;;
5776;SDS011;2914;42.668;23.346;2023-04-24T00:32:53;8.50;;;6.60;;
5776;SDS011;2914;42.668;23.346;2023-04-24T00:35:22;13.03;;;6.57;;
5776;SDS011;2914;42.668;23.346;2023-04-24T00:37:52;15.53;;;6.67;;
5776;SDS011;2914;42.668;23.346;2023-04-24T00:40:21;6.63;;;5.87;;
5776;SDS011;2914;42.668;23.346;2023-04-24T00:42:50;8.97;;;6.60;;
5776;SDS011;2914;42.668;23.346;2023-04-24T00:45:20;11.57;;;6.77;;
5776;SDS011;2914;42.668;23.346;2023-04-24T00:47:49;15.90;;;7.63;;
5776;SDS011;2914;42.668;23.346;2023-04-24T00:50:20;9.23;;;6.50;;
5776;SDS011;2914;42.668;23.346;2023-04-24T00:52:51;6.50;;;5.30;;
5776;SDS011;2914;42.668;23.346;2023-04-24T00:55:20;10.63;;;6.57;;
5776;SDS011;2914;42.668;23.346;2023-04-24T00:57:49;9.27;;;6.80;;
5776;SDS011;2914;42.668;23.346;2023-04-24T01:00:18;8.20;;;6.77;;
5776;SDS011;2914;42.668;23.346;2023-04-24T01:02:48;7.37;;;6.60;;
5776;SDS011;2914;42.668;23.346;2023-04-24T01:05:19;13.00;;;6.77;;
5776;SDS011;2914;42.668;23.346;2023-04-24T01:07:48;11.43;;;7.70;;
5776;SDS011;2914;42.668;23.346;2023-04-24T01:10:17;6.47;;;6.00;;
5776;SDS011;2914;42.668;23.346;2023-04-24T01:12:48;7.47;;;5.63;;
5776;SDS011;2914;42.668;23.346;2023-04-24T01:15:17;6.93;;;6.23;;
5776;SDS011;2914;42.668;23.346;2023-04-24T01:17:46;8.30;;;6.30;;
5776;SDS011;2914;42.668;23.346;2023-04-24T01:20:16;12.00;;;6.60;;
5776;SDS011;2914;42.668;23.346;2023-04-24T01:22:47;7.13;;;6.40;;
5776;SDS011;2914;42.668;23.346;2023-04-24T01:25:16;9.33;;;6.30;;
5776;SDS011;2914;42.668;23.346;2023-04-24T01:27:45;6.70;;;6.00;;
5776;SDS011;2914;42.668;23.346;2023-04-24T01:30:14;7.20;;;6.60;;
5776;SDS011;2914;42.668;23.346;2023-04-24T01:32:43;6.37;;;5.70;;
5776;SDS011;2914;42.668;23.346;2023-04-24T01:35:13;9.10;;;6.80;;
5776;SDS011;2914;42.668;23.346;2023-04-24T01:37:42;7.70;;;5.70;;
5776;SDS011;2914;42.668;23.346;2023-04-24T01:40:12;8.80;;;6.07;;
5776;SDS011;2914;42.668;23.346;2023-04-24T01:42:41;11.20;;;6.80;;
5776;SDS011;2914;42.668;23.346;2023-04-24T01:45:11;8.43;;;6.20;;
5776;SDS011;2914;42.668;23.346;2023-04-24T01:47:40;6.90;;;6.20;;
5776;SDS011;2914;42.668;23.346;2023-04-24T01:50:11;6.87;;;6.27;;
5776;SDS011;2914;42.668;23.346;2023-04-24T01:52:40;12.40;;;6.40;;
5776;SDS011;2914;42.668;23.346;2023-04-24T01:55:10;9.80;;;6.17;;
5776;SDS011;2914;42.668;23.346;2023-04-24T01:57:39;8.40;;;6.50;;
5776;SDS011;2914;42.668;23.346;2023-04-24T02:00:09;7.77;;;5.57;;
5776;SDS011;2914;42.668;23.346;2023-04-24T02:02:39;7.13;;;6.10;;
5776;SDS011;2914;42.668;23.346;2023-04-24T02:05:09;7.70;;;6.13;;
5776;SDS011;2914;42.668;23.346;2023-04-24T02:07:41;8.50;;;6.93;;
5776;SDS011;2914;42.668;23.346;2023-04-24T02:10:10;7.03;;;6.10;;
5776;SDS011;2914;42.668;23.346;2023-04-24T02:12:39;6.20;;;5.80;;
5776;SDS011;2914;42.668;23.346;2023-04-24T02:15:09;8.03;;;6.77;;
5776;SDS011;2914;42.668;23.346;2023-04-24T02:17:39;12.80;;;6.40;;
5776;SDS011;2914;42.668;23.346;2023-04-24T02:20:08;7.50;;;6.90;;
5776;SDS011;2914;42.668;23.346;2023-04-24T02:22:37;7.20;;;6.70;;
5776;SDS011;2914;42.668;23.346;2023-04-24T02:25:07;10.47;;;6.73;;
5776;SDS011;2914;42.668;23.346;2023-04-24T02:27:36;8.47;;;6.93;;
5776;SDS011;2914;42.668;23.346;2023-04-24T02:30:20;12.20;;;6.77;;
5776;SDS011;2914;42.668;23.346;2023-04-24T02:32:49;7.00;;;6.40;;
5776;SDS011;2914;42.668;23.346;2023-04-24T02:35:18;7.83;;;7.13;;
5776;SDS011;2914;42.668;23.346;2023-04-24T02:37:47;6.73;;;6.13;;
5776;SDS011;2914;42.668;23.346;2023-04-24T02:40:16;14.80;;;7.00;;
5776;SDS011;2914;42.668;23.346;2023-04-24T02:42:46;14.13;;;7.20;;
5776;SDS011;2914;42.668;23.346;2023-04-24T02:45:15;7.53;;;6.63;;
5776;SDS011;2914;42.668;23.346;2023-04-24T02:47:47;6.83;;;6.27;;
5776;SDS011;2914;42.668;23.346;2023-04-24T02:50:16;9.67;;;6.43;;
5776;SDS011;2914;42.668;23.346;2023-04-24T02:52:45;12.73;;;7.37;;
5776;SDS011;2914;42.668;23.346;2023-04-24T02:55:14;8.63;;;7.10;;
5776;SDS011;2914;42.668;23.346;2023-04-24T02:57:43;7.33;;;6.80;;
5776;SDS011;2914;42.668;23.346;2023-04-24T03:00:13;8.30;;;6.50;;
5776;SDS011;2914;42.668;23.346;2023-04-24T03:02:42;8.53;;;7.33;;
5776;SDS011;2914;42.668;23.346;2023-04-24T03:05:12;7.87;;;6.50;;
5776;SDS011;2914;42.668;23.346;2023-04-24T03:07:41;7.33;;;6.27;;
5776;SDS011;2914;42.668;23.346;2023-04-24T03:10:10;9.13;;;6.83;;
5776;SDS011;2914;42.668;23.346;2023-04-24T03:12:39;10.70;;;6.93;;
5776;SDS011;2914;42.668;23.346;2023-04-24T03:15:09;8.13;;;6.70;;
5776;SDS011;2914;42.668;23.346;2023-04-24T03:17:38;6.97;;;6.43;;
5776;SDS011;2914;42.668;23.346;2023-04-24T03:20:08;8.20;;;6.73;;
5776;SDS011;2914;42.668;23.346;2023-04-24T03:22:38;7.80;;;7.00;;
5776;SDS011;2914;42.668;23.346;2023-04-24T03:25:08;7.27;;;6.60;;
5776;SDS011;2914;42.668;23.346;2023-04-24T03:27:37;10.83;;;7.73;;
5776;SDS011;2914;42.668;23.346;2023-04-24T03:30:07;16.13;;;6.90;;
5776;SDS011;2914;42.668;23.346;2023-04-24T03:32:37;7.77;;;7.03;;
5776;SDS011;2914;42.668;23.346;2023-04-24T03:35:06;11.17;;;7.67;;
5776;SDS011;2914;42.668;23.346;2023-04-24T03:37:36;8.30;;;6.73;;
5776;SDS011;2914;42.668;23.346;2023-04-24T03:40:07;10.77;;;8.17;;
5776;SDS011;2914;42.668;23.346;2023-04-24T03:42:37;8.60;;;7.80;;
5776;SDS011;2914;42.668;23.346;2023-04-24T03:45:07;10.90;;;7.10;;
5776;SDS011;2914;42.668;23.346;2023-04-24T03:47:37;15.63;;;8.80;;
5776;SDS011;2914;42.668;23.346;2023-04-24T03:50:07;18.97;;;7.40;;
5776;SDS011;2914;42.668;23.346;2023-04-24T03:52:37;10.40;;;7.10;;
5776;SDS011;2914;42.668;23.346;2023-04-24T03:55:07;13.00;;;8.40;;
5776;SDS011;2914;42.668;23.346;2023-04-24T03:57:38;11.23;;;7.73;;
5776;SDS011;2914;42.668;23.346;2023-04-24T04:00:12;13.53;;;7.60;;
5776;SDS011;2914;42.668;23.346;2023-04-24T04:02:41;11.07;;;7.77;;
5776;SDS011;2914;42.668;23.346;2023-04-24T04:05:11;9.47;;;7.70;;
5776;SDS011;2914;42.668;23.346;2023-04-24T04:07:40;8.13;;;7.10;;
5776;SDS011;2914;42.668;23.346;2023-04-24T04:10:09;17.03;;;7.07;;
5776;SDS011;2914;42.668;23.346;2023-04-24T04:12:38;7.93;;;7.20;;
5776;SDS011;2914;42.668;23.346;2023-04-24T04:15:07;10.90;;;7.30;;
5776;SDS011;2914;42.668;23.346;2023-04-24T04:17:37;20.17;;;7.30;;
5776;SDS011;2914;42.668;23.346;2023-04-24T04:20:07;8.17;;;7.37;;
5776;SDS011;2914;42.668;23.346;2023-04-24T04:22:38;7.80;;;7.10;;
5776;SDS011;2914;42.668;23.346;2023-04-24T04:25:07;11.20;;;7.60;;
5776;SDS011;2914;42.668;23.346;2023-04-24T04:27:37;10.03;;;7.37;;
5776;SDS011;2914;42.668;23.346;2023-04-24T04:30:08;13.50;;;8.20;;
5776;SDS011;2914;42.668;23.346;2023-04-24T04:32:37;16.00;;;7.80;;
5776;SDS011;2914;42.668;23.346;2023-04-24T04:35:07;10.03;;;6.77;;
5776;SDS011;2914;42.668;23.346;2023-04-24T04:37:36;8.77;;;7.00;;
5776;SDS011;2914;42.668;23.346;2023-04-24T04:40:08;10.50;;;7.53;;
5776;SDS011;2914;42.668;23.346;2023-04-24T04:42:52;7.40;;;6.70;;
5776;SDS011;2914;42.668;23.346;2023-04-24T04:45:20;9.30;;;6.47;;
5776;SDS011;2914;42.668;23.346;2023-04-24T04:47:50;9.57;;;6.10;;
5776;SDS011;2914;42.668;23.346;2023-04-24T04:50:21;7.60;;;6.40;;
5776;SDS011;2914;42.668;23.346;2023-04-24T04:52:59;8.13;;;7.33;;
5776;SDS011;2914;42.668;23.346;2023-04-24T04:55:28;11.87;;;6.83;;
5776;SDS011;2914;42.668;23.346;2023-04-24T04:57:57;12.80;;;6.43;;
5776;SDS011;2914;42.668;23.346;2023-04-24T05:00:27;7.60;;;6.03;;
5776;SDS011;2914;42.668;23.346;2023-04-24T05:02:58;10.33;;;6.23;;
5776;SDS011;2914;42.668;23.346;2023-04-24T05:05:27;7.37;;;6.20;;
5776;SDS011;2914;42.668;23.346;2023-04-24T05:07:56;10.20;;;6.73;;
5776;SDS011;2914;42.668;23.346;2023-04-24T05:10:26;10.70;;;7.00;;
5776;SDS011;2914;42.668;23.346;2023-04-24T05:12:55;8.30;;;7.07;;
5776;SDS011;2914;42.668;23.346;2023-04-24T05:15:24;12.33;;;6.40;;
5776;SDS011;2914;42.668;23.346;2023-04-24T05:17:53;7.30;;;5.67;;
5776;SDS011;2914;42.668;23.346;2023-04-24T05:20:22;11.73;;;6.40;;
5776;SDS011;2914;42.668;23.346;2023-04-24T05:22:52;9.13;;;6.70;;
5776;SDS011;2914;42.668;23.346;2023-04-24T05:25:21;6.63;;;6.17;;
5776;SDS011;2914;42.668;23.346;2023-04-24T05:27:50;14.93;;;6.87;;
5776;SDS011;2914;42.668;23.346;2023-04-24T05:30:20;6.03;;;5.63;;
5776;SDS011;2914;42.668;23.346;2023-04-24T05:32:49;7.93;;;6.33;;
5776;SDS011;2914;42.668;23.346;2023-04-24T05:35:18;8.83;;;6.30;;
5776;SDS011;2914;42.668;23.346;2023-04-24T05:37:47;11.50;;;7.23;;
5776;SDS011;2914;42.668;23.346;2023-04-24T05:40:16;10.67;;;6.40;;
5776;SDS011;2914;42.668;23.346;2023-04-24T05:45:22;7.93;;;7.00;;
5776;SDS011;2914;42.668;23.346;2023-04-24T05:47:51;17.13;;;7.50;;
5776;SDS011;2914;42.668;23.346;2023-04-24T05:50:28;14.50;;;8.67;;
5776;SDS011;2914;42.668;23.346;2023-04-24T05:53:06;18.13;;;7.80;;
5776;SDS011;2914;42.668;23.346;2023-04-24T05:55:36;10.37;;;7.83;;
5776;SDS011;2914;42.668;23.346;2023-04-24T05:58:05;10.87;;;7.50;;
5776;SDS011;2914;42.668;23.346;2023-04-24T06:00:43;9.90;;;7.43;;
5776;SDS011;2914;42.668;23.346;2023-04-24T06:03:13;12.97;;;8.20;;
5776;SDS011;2914;42.668;23.346;2023-04-24T06:05:50;12.10;;;8.90;;
5776;SDS011;2914;42.668;23.346;2023-04-24T06:08:20;17.67;;;8.80;;
5776;SDS011;2914;42.668;23.346;2023-04-24T06:10:49;12.37;;;9.20;;
5776;SDS011;2914;42.668;23.346;2023-04-24T06:13:18;13.47;;;9.00;;
5776;SDS011;2914;42.668;23.346;2023-04-24T06:15:47;16.93;;;8.80;;
5776;SDS011;2914;42.668;23.346;2023-04-24T06:18:16;16.23;;;8.60;;
5776;SDS011;2914;42.668;23.346;2023-04-24T06:20:46;16.40;;;9.50;;
5776;SDS011;2914;42.668;23.346;2023-04-24T06:23:15;12.67;;;8.40;;
5776;SDS011;2914;42.668;23.346;2023-04-24T06:25:44;12.00;;;8.73;;
5776;SDS011;2914;42.668;23.346;2023-04-24T06:28:13;22.67;;;9.70;;
5776;SDS011;2914;42.668;23.346;2023-04-24T06:30:42;12.80;;;10.17;;
5776;SDS011;2914;42.668;23.346;2023-04-24T06:33:11;20.90;;;10.00;;
5776;SDS011;2914;42.668;23.346;2023-04-24T06:35:40;19.50;;;10.00;;
5776;SDS011;2914;42.668;23.346;2023-04-24T06:38:09;14.87;;;10.30;;
5776;SDS011;2914;42.668;23.346;2023-04-24T06:40:38;11.00;;;8.77;;
5776;SDS011;2914;42.668;23.346;2023-04-24T06:43:07;15.60;;;9.50;;
5776;SDS011;2914;42.668;23.346;2023-04-24T06:45:37;12.07;;;9.40;;
5776;SDS011;2914;42.668;23.346;2023-04-24T06:48:06;16.07;;;8.20;;
5776;SDS011;2914;42.668;23.346;2023-04-24T06:50:35;22.57;;;9.00;;
5776;SDS011;2914;42.668;23.346;2023-04-24T06:53:04;17.47;;;9.60;;
5776;SDS011;2914;42.668;23.346;2023-04-24T06:55:34;23.10;;;9.50;;
5776;SDS011;2914;42.668;23.346;2023-04-24T06:58:04;10.57;;;9.50;;
5776;SDS011;2914;42.668;23.346;2023-04-24T07:00:33;12.00;;;10.23;;
5776;SDS011;2914;42.668;23.346;2023-04-24T07:03:02;13.80;;;9.50;;
5776;SDS011;2914;42.668;23.346;2023-04-24T07:05:40;28.93;;;9.80;;
5776;SDS011;2914;42.668;23.346;2023-04-24T07:08:10;10.50;;;9.20;;
5776;SDS011;2914;42.668;23.346;2023-04-24T07:10:39;14.20;;;8.67;;
5776;SDS011;2914;42.668;23.346;2023-04-24T07:13:08;10.67;;;9.53;;
5776;SDS011;2914;42.668;23.346;2023-04-24T07:15:37;15.10;;;9.77;;
5776;SDS011;2914;42.668;23.346;2023-04-24T07:18:07;10.40;;;9.37;;
5776;SDS011;2914;42.668;23.346;2023-04-24T07:20:36;15.30;;;8.80;;
5776;SDS011;2914;42.668;23.346;2023-04-24T07:23:07;21.90;;;9.53;;
5776;SDS011;2914;42.668;23.346;2023-04-24T07:25:36;10.37;;;8.77;;
5776;SDS011;2914;42.668;23.346;2023-04-24T07:28:07;12.80;;;9.40;;
5776;SDS011;2914;42.668;23.346;2023-04-24T07:30:36;9.70;;;8.37;;
5776;SDS011;2914;42.668;23.346;2023-04-24T07:33:05;10.90;;;9.00;;
5776;SDS011;2914;42.668;23.346;2023-04-24T07:35:38;16.17;;;10.10;;
5776;SDS011;2914;42.668;23.346;2023-04-24T07:38:07;13.40;;;9.20;;
5776;SDS011;2914;42.668;23.346;2023-04-24T07:40:37;10.47;;;8.40;;
5776;SDS011;2914;42.668;23.346;2023-04-24T07:43:06;12.67;;;9.17;;
5776;SDS011;2914;42.668;23.346;2023-04-24T07:45:36;9.77;;;8.77;;
5776;SDS011;2914;42.668;23.346;2023-04-24T07:48:05;10.10;;;8.80;;
5776;SDS011;2914;42.668;23.346;2023-04-24T07:50:35;9.93;;;8.97;;
5776;SDS011;2914;42.668;23.346;2023-04-24T07:53:04;8.60;;;7.80;;
5776;SDS011;2914;42.668;23.346;2023-04-24T07:55:33;11.50;;;7.97;;
5776;SDS011;2914;42.668;23.346;2023-04-24T07:58:16;8.27;;;7.47;;
5776;SDS011;2914;42.668;23.346;2023-04-24T08:00:45;13.37;;;8.60;;
5776;SDS011;2914;42.668;23.346;2023-04-24T08:03:15;12.43;;;8.67;;
5776;SDS011;2914;42.668;23.346;2023-04-24T08:05:46;20.63;;;8.07;;
5776;SDS011;2914;42.668;23.346;2023-04-24T08:08:16;9.37;;;8.50;;
5776;SDS011;2914;42.668;23.346;2023-04-24T08:10:47;10.63;;;8.40;;
5776;SDS011;2914;42.668;23.346;2023-04-24T08:13:16;27.17;;;9.17;;
5776;SDS011;2914;42.668;23.346;2023-04-24T08:15:45;11.60;;;8.90;;
5776;SDS011;2914;42.668;23.346;2023-04-24T08:18:14;9.90;;;8.83;;
5776;SDS011;2914;42.668;23.346;2023-04-24T08:20:43;13.30;;;8.60;;
5776;SDS011;2914;42.668;23.346;2023-04-24T08:23:12;10.30;;;8.27;;
5776;SDS011;2914;42.668;23.346;2023-04-24T08:25:41;12.67;;;8.23;;
5776;SDS011;2914;42.668;23.346;2023-04-24T08:28:10;17.40;;;8.70;;
5776;SDS011;2914;42.668;23.346;2023-04-24T08:30:41;10.63;;;8.77;;
5776;SDS011;2914;42.668;23.346;2023-04-24T08:33:10;12.97;;;8.80;;
5776;SDS011;2914;42.668;23.346;2023-04-24T08:35:39;11.33;;;9.00;;
5776;SDS011;2914;42.668;23.346;2023-04-24T08:38:08;14.83;;;8.13;;
5776;SDS011;2914;42.668;23.346;2023-04-24T08:40:38;19.13;;;9.17;;
5776;SDS011;2914;42.668;23.346;2023-04-24T08:43:07;17.57;;;9.97;;
5776;SDS011;2914;42.668;23.346;2023-04-24T08:45:37;8.73;;;7.93;;
5776;SDS011;2914;42.668;23.346;2023-04-24T08:48:06;10.10;;;8.83;;
5776;SDS011;2914;42.668;23.346;2023-04-24T08:50:37;12.80;;;8.07;;
5776;SDS011;2914;42.668;23.346;2023-04-24T08:53:09;13.60;;;7.47;;
5776;SDS011;2914;42.668;23.346;2023-04-24T08:55:38;13.20;;;7.67;;
5776;SDS011;2914;42.668;23.346;2023-04-24T08:58:08;9.60;;;7.67;;
5776;SDS011;2914;42.668;23.346;2023-04-24T09:00:46;13.20;;;7.83;;
5776;SDS011;2914;42.668;23.346;2023-04-24T09:03:15;10.60;;;8.40;;
5776;SDS011;2914;42.668;23.346;2023-04-24T09:05:46;13.23;;;7.40;;
5776;SDS011;2914;42.668;23.346;2023-04-24T09:08:17;10.47;;;7.07;;
5776;SDS011;2914;42.668;23.346;2023-04-24T09:10:47;8.70;;;7.50;;
5776;SDS011;2914;42.668;23.346;2023-04-24T09:13:24;7.77;;;7.07;;
5776;SDS011;2914;42.668;23.346;2023-04-24T09:15:54;12.13;;;7.53;;
5776;SDS011;2914;42.668;23.346;2023-04-24T09:18:25;11.73;;;7.50;;
5776;SDS011;2914;42.668;23.346;2023-04-24T09:23:33;10.97;;;7.33;;
5776;SDS011;2914;42.668;23.346;2023-04-24T09:26:03;6.63;;;6.13;;
5776;SDS011;2914;42.668;23.346;2023-04-24T09:28:34;7.30;;;6.70;;
5776;SDS011;2914;42.668;23.346;2023-04-24T09:31:05;11.47;;;6.83;;
5776;SDS011;2914;42.668;23.346;2023-04-24T09:33:35;9.50;;;6.43;;
5776;SDS011;2914;42.668;23.346;2023-04-24T09:36:04;7.87;;;7.03;;
5776;SDS011;2914;42.668;23.346;2023-04-24T09:38:34;13.87;;;6.50;;
5776;SDS011;2914;42.668;23.346;2023-04-24T09:41:05;13.33;;;7.10;;
5776;SDS011;2914;42.668;23.346;2023-04-24T09:43:35;7.93;;;6.00;;
5776;SDS011;2914;42.668;23.346;2023-04-24T09:46:05;16.23;;;7.03;;
5776;SDS011;2914;42.668;23.346;2023-04-24T09:48:36;8.70;;;7.17;;
5776;SDS011;2914;42.668;23.346;2023-04-24T09:51:05;9.93;;;6.80;;
5776;SDS011;2914;42.668;23.346;2023-04-24T09:53:37;7.30;;;6.60;;
5776;SDS011;2914;42.668;23.346;2023-04-24T09:56:07;6.63;;;6.03;;
5776;SDS011;2914;42.668;23.346;2023-04-24T09:58:38;8.73;;;6.90;;
5776;SDS011;2914;42.668;23.346;2023-04-24T10:03:50;10.13;;;6.47;;
5776;SDS011;2914;42.668;23.346;2023-04-24T10:06:20;7.43;;;6.80;;
5776;SDS011;2914;42.668;23.346;2023-04-24T10:08:49;8.40;;;6.60;;
5776;SDS011;2914;42.668;23.346;2023-04-24T10:11:33;7.43;;;6.60;;
5776;SDS011;2914;42.668;23.346;2023-04-24T10:14:02;15.00;;;6.93;;
5776;SDS011;2914;42.668;23.346;2023-04-24T10:16:32;7.20;;;6.50;;
5776;SDS011;2914;42.668;23.346;2023-04-24T10:19:01;7.50;;;6.80;;
5776;SDS011;2914;42.668;23.346;2023-04-24T10:21:31;12.03;;;6.30;;
5776;SDS011;2914;42.668;23.346;2023-04-24T10:24:01;11.10;;;6.37;;
5776;SDS011;2914;42.668;23.346;2023-04-24T10:26:40;13.67;;;7.10;;
5776;SDS011;2914;42.668;23.346;2023-04-24T10:29:10;11.40;;;6.00;;
5776;SDS011;2914;42.668;23.346;2023-04-24T10:31:41;7.50;;;6.80;;
5776;SDS011;2914;42.668;23.346;2023-04-24T10:34:11;7.23;;;6.17;;
5776;SDS011;2914;42.668;23.346;2023-04-24T10:36:43;7.70;;;6.20;;
5776;SDS011;2914;42.668;23.346;2023-04-24T10:39:14;6.67;;;6.07;;
5776;SDS011;2914;42.668;23.346;2023-04-24T10:41:46;16.90;;;7.90;;
5776;SDS011;2914;42.668;23.346;2023-04-24T10:44:17;10.90;;;7.27;;
5776;SDS011;2914;42.668;23.346;2023-04-24T10:47:14;11.53;;;6.37;;
5776;SDS011;2914;42.668;23.346;2023-04-24T10:49:43;8.33;;;6.00;;
5776;SDS011;2914;42.668;23.346;2023-04-24T10:52:12;12.37;;;6.90;;
5776;SDS011;2914;42.668;23.346;2023-04-24T10:54:44;9.77;;;6.33;;
5776;SDS011;2914;42.668;23.346;2023-04-24T10:57:28;8.80;;;6.60;;
5776;SDS011;2914;42.668;23.346;2023-04-24T11:00:10;6.60;;;6.10;;
5776;SDS011;2914;42.668;23.346;2023-04-24T11:02:59;8.13;;;6.20;;
5776;SDS011;2914;42.668;23.346;2023-04-24T11:08:30;8.53;;;6.00;;
5776;SDS011;2914;42.668;23.346;2023-04-24T11:11:02;8.40;;;5.60;;
5776;SDS011;2914;42.668;23.346;2023-04-24T11:16:52;6.20;;;5.70;;
5776;SDS011;2914;42.668;23.346;2023-04-24T11:19:22;5.60;;;5.20;;
5776;SDS011;2914;42.668;23.346;2023-04-24T11:21:55;13.03;;;6.57;;
5776;SDS011;2914;42.668;23.346;2023-04-24T11:24:28;6.77;;;6.27;;
5776;SDS011;2914;42.668;23.346;2023-04-24T11:26:59;7.70;;;6.77;;
5776;SDS011;2914;42.668;23.346;2023-04-24T11:29:40;10.87;;;6.10;;
5776;SDS011;2914;42.668;23.346;2023-04-24T11:32:25;6.23;;;5.20;;
5776;SDS011;2914;42.668;23.346;2023-04-24T11:34:56;13.60;;;5.13;;
5776;SDS011;2914;42.668;23.346;2023-04-24T11:37:27;7.30;;;4.80;;
5776;SDS011;2914;42.668;23.346;2023-04-24T11:39:58;4.13;;;3.93;;
5776;SDS011;2914;42.668;23.346;2023-04-24T11:42:28;6.03;;;5.07;;
5776;SDS011;2914;42.668;23.346;2023-04-24T11:45:06;8.20;;;4.27;;
5776;SDS011;2914;42.668;23.346;2023-04-24T11:47:44;7.90;;;5.60;;
5776;SDS011;2914;42.668;23.346;2023-04-24T11:50:14;11.77;;;5.30;;
5776;SDS011;2914;42.668;23.346;2023-04-24T11:52:58;4.87;;;4.43;;
5776;SDS011;2914;42.668;23.346;2023-04-24T11:55:27;11.80;;;5.30;;
5776;SDS011;2914;42.668;23.346;2023-04-24T11:57:57;11.93;;;6.17;;
5776;SDS011;2914;42.668;23.346;2023-04-24T12:00:28;6.43;;;5.93;;
5776;SDS011;2914;42.668;23.346;2023-04-24T12:03:06;6.30;;;5.90;;
5776;SDS011;2914;42.668;23.346;2023-04-24T12:05:37;9.30;;;6.20;;
5776;SDS011;2914;42.668;23.346;2023-04-24T12:08:07;6.63;;;5.90;;
5776;SDS011;2914;42.668;23.346;2023-04-24T12:10:36;9.83;;;6.07;;
5776;SDS011;2914;42.668;23.346;2023-04-24T12:13:05;7.60;;;5.60;;
5776;SDS011;2914;42.668;23.346;2023-04-24T12:15:36;5.73;;;5.17;;
5776;SDS011;2914;42.668;23.346;2023-04-24T12:18:22;6.17;;;5.33;;
5776;SDS011;2914;42.668;23.346;2023-04-24T12:20:52;16.67;;;6.60;;
5776;SDS011;2914;42.668;23.346;2023-04-24T12:23:33;7.00;;;6.30;;
5776;SDS011;2914;42.668;23.346;2023-04-24T12:26:04;5.37;;;5.07;;
5776;SDS011;2914;42.668;23.346;2023-04-24T12:28:36;9.50;;;7.43;;
5776;SDS011;2914;42.668;23.346;2023-04-24T12:31:07;4.70;;;4.37;;
5776;SDS011;2914;42.668;23.346;2023-04-24T12:33:36;5.67;;;5.03;;
5776;SDS011;2914;42.668;23.346;2023-04-24T12:36:06;5.20;;;4.90;;
5776;SDS011;2914;42.668;23.346;2023-04-24T12:38:38;5.20;;;4.90;;
5776;SDS011;2914;42.668;23.346;2023-04-24T12:41:11;4.83;;;4.47;;
5776;SDS011;2914;42.668;23.346;2023-04-24T12:43:51;5.83;;;4.57;;
5776;SDS011;2914;42.668;23.346;2023-04-24T12:46:21;4.47;;;4.23;;
5776;SDS011;2914;42.668;23.346;2023-04-24T12:48:51;5.17;;;4.87;;
5776;SDS011;2914;42.668;23.346;2023-04-24T12:51:20;5.20;;;4.60;;
5776;SDS011;2914;42.668;23.346;2023-04-24T12:53:58;5.20;;;4.87;;
5776;SDS011;2914;42.668;23.346;2023-04-24T12:56:27;6.20;;;5.60;;
5776;SDS011;2914;42.668;23.346;2023-04-24T12:58:57;8.20;;;4.93;;
5776;SDS011;2914;42.668;23.346;2023-04-24T13:01:26;6.13;;;4.83;;
5776;SDS011;2914;42.668;23.346;2023-04-24T13:03:55;5.47;;;5.10;;
5776;SDS011;2914;42.668;23.346;2023-04-24T13:06:24;5.67;;;5.17;;
5776;SDS011;2914;42.668;23.346;2023-04-24T13:08:54;6.23;;;4.83;;
5776;SDS011;2914;42.668;23.346;2023-04-24T13:11:24;7.37;;;5.50;;
5776;SDS011;2914;42.668;23.346;2023-04-24T13:13:54;5.67;;;5.17;;
5776;SDS011;2914;42.668;23.346;2023-04-24T13:16:23;6.07;;;5.63;;
5776;SDS011;2914;42.668;23.346;2023-04-24T13:18:52;6.73;;;5.40;;
5776;SDS011;2914;42.668;23.346;2023-04-24T13:21:21;6.03;;;5.60;;
5776;SDS011;2914;42.668;23.346;2023-04-24T13:24:05;6.20;;;5.60;;
5776;SDS011;2914;42.668;23.346;2023-04-24T13:26:35;5.50;;;5.00;;
5776;SDS011;2914;42.668;23.346;2023-04-24T13:29:04;4.90;;;4.60;;
5776;SDS011;2914;42.668;23.346;2023-04-24T13:31:33;5.40;;;5.10;;
5776;SDS011;2914;42.668;23.346;2023-04-24T13:34:02;7.40;;;5.27;;
5776;SDS011;2914;42.668;23.346;2023-04-24T13:36:31;11.83;;;6.10;;
5776;SDS011;2914;42.668;23.346;2023-04-24T13:39:01;6.00;;;5.60;;
5776;SDS011;2914;42.668;23.346;2023-04-24T13:41:32;6.17;;;5.70;;
5776;SDS011;2914;42.668;23.346;2023-04-24T13:44:02;6.47;;;5.90;;
5776;SDS011;2914;42.668;23.346;2023-04-24T13:46:40;6.27;;;5.83;;
5776;SDS011;2914;42.668;23.346;2023-04-24T13:49:10;10.33;;;6.53;;
5776;SDS011;2914;42.668;23.346;2023-04-24T13:51:48;6.47;;;5.57;;
5776;SDS011;2914;42.668;23.346;2023-04-24T13:54:17;7.00;;;6.50;;
5776;SDS011;2914;42.668;23.346;2023-04-24T13:56:46;10.10;;;6.80;;
5776;SDS011;2914;42.668;23.346;2023-04-24T13:59:15;6.57;;;5.83;;
5776;SDS011;2914;42.668;23.346;2023-04-24T14:01:45;5.57;;;5.17;;
5776;SDS011;2914;42.668;23.346;2023-04-24T14:04:14;12.80;;;6.30;;
5776;SDS011;2914;42.668;23.346;2023-04-24T14:06:58;6.67;;;6.00;;
5776;SDS011;2914;42.668;23.346;2023-04-24T14:09:27;6.00;;;5.60;;
5776;SDS011;2914;42.668;23.346;2023-04-24T14:12:04;9.73;;;6.57;;
5776;SDS011;2914;42.668;23.346;2023-04-24T14:14:34;6.93;;;6.33;;
5776;SDS011;2914;42.668;23.346;2023-04-24T14:17:11;6.17;;;5.67;;
5776;SDS011;2914;42.668;23.346;2023-04-24T14:19:40;8.10;;;5.80;;
5776;SDS011;2914;42.668;23.346;2023-04-24T14:22:10;6.83;;;6.30;;
5776;SDS011;2914;42.668;23.346;2023-04-24T14:24:39;6.70;;;6.10;;
5776;SDS011;2914;42.668;23.346;2023-04-24T14:27:16;10.80;;;7.00;;
5776;SDS011;2914;42.668;23.346;2023-04-24T14:29:45;7.80;;;5.23;;
5776;SDS011;2914;42.668;23.346;2023-04-24T14:32:23;4.57;;;4.37;;
5776;SDS011;2914;42.668;23.346;2023-04-24T14:34:52;5.37;;;5.03;;
5776;SDS011;2914;42.668;23.346;2023-04-24T14:37:21;5.53;;;4.60;;
5776;SDS011;2914;42.668;23.346;2023-04-24T14:39:50;4.67;;;4.30;;
5776;SDS011;2914;42.668;23.346;2023-04-24T14:42:19;5.00;;;4.70;;
5776;SDS011;2914;42.668;23.346;2023-04-24T14:44:48;7.13;;;6.63;;
5776;SDS011;2914;42.668;23.346;2023-04-24T14:47:18;4.83;;;4.50;;
5776;SDS011;2914;42.668;23.346;2023-04-24T14:52:30;5.47;;;5.00;;
5776;SDS011;2914;42.668;23.346;2023-04-24T14:54:59;4.87;;;4.67;;
5776;SDS011;2914;42.668;23.346;2023-04-24T14:57:28;5.80;;;5.30;;
5776;SDS011;2914;42.668;23.346;2023-04-24T14:59:58;9.33;;;5.73;;
5776;SDS011;2914;42.668;23.346;2023-04-24T15:02:27;10.47;;;5.40;;
5776;SDS011;2914;42.668;23.346;2023-04-24T15:04:59;6.77;;;6.17;;
5776;SDS011;2914;42.668;23.346;2023-04-24T15:07:29;6.60;;;5.43;;
5776;SDS011;2914;42.668;23.346;2023-04-24T15:09:59;9.40;;;6.17;;
5776;SDS011;2914;42.668;23.346;2023-04-24T15:12:28;6.40;;;5.80;;
5776;SDS011;2914;42.668;23.346;2023-04-24T15:14:58;7.70;;;5.50;;
5776;SDS011;2914;42.668;23.346;2023-04-24T15:17:27;8.43;;;7.43;;
5776;SDS011;2914;42.668;23.346;2023-04-24T15:19:56;8.20;;;5.67;;
5776;SDS011;2914;42.668;23.346;2023-04-24T15:22:25;6.40;;;5.87;;
5776;SDS011;2914;42.668;23.346;2023-04-24T15:24:54;6.63;;;5.93;;
5776;SDS011;2914;42.668;23.346;2023-04-24T15:27:26;8.40;;;6.10;;
5776;SDS011;2914;42.668;23.346;2023-04-24T15:30:07;10.10;;;6.07;;
5776;SDS011;2914;42.668;23.346;2023-04-24T15:32:37;6.80;;;6.20;;